الصفحة الرئيسية
METAR-TAF:

METAR-TAF

مطار :

Tocumen, بنما

دائرة عرض: 09-03N, خط طول: 079-22W, ارتفاع: 45 متر

METAR: مفقودة

زمن: 07:40 (12:40 UTC)

توقعات

تاريخ ووقت الإصدار 20ساعات و 10 دقيقة قبل الساعة 16:30UTC
التوقعات صالحة من24 الساعة 18 UTC إلى 25 الساعة 24 UTC
ريح 6 عقدة من الجنوب
الرؤية: 7000 متر
غيوم قليلة على ارتفاع 1300 قدم, مزنة ركامية.
غيوم متفرقة على ارتفاع 8000 قدم
عاصفة رعدية, مطر
مؤقت
من 24 الساعة 21 UTC إلى 24 الساعة 24 UTC
ريح 8 عقدة من الغرب
الرؤية: 8000 متر
غيوم متفرقة على ارتفاع 1600 قدم
غيوم متفرقة على ارتفاع 7000 قدم
مطر

TAF: MPTO 241630Z 2418/2524 19006KT 7000 TSRA FEW013CB SCT080 TEMPO 2421/2424 27008KT 8000 RA SCT016 SCT070

أرصاد الطقس والتوقعات من أكثر من 4000 مطار (تقارير الطقس للمطار METAR والتنبؤ بالطقس بالمطارTAF).

المحطات المتاحة هي النقط الصفراء والحمراء على الخريطة.

حرك المؤشر فوق النقطة لمعرفة اسم المحطة.

ثم انقر لمعرفة أرصاد وتوقعات الطقس.

لتغيير الخارطة: اضغط على الأزرار الخضراء مع رمز الصليب الأسود للتكبير. على الزر الأخضر مع شرطة للتصغير، أو على الأسهم الخضراء للخرائط المجاورة.


METAR-TAF: